createdAt,value
2016-06-05T00:00:06.133Z,56.26
2016-06-05T00:00:16.149Z,56.36
2016-06-05T00:00:26.149Z,56.16
2016-06-05T00:00:36.149Z,56.26
2016-06-05T00:00:46.152Z,56.36
2016-06-05T00:00:56.167Z,56.26
2016-06-05T00:01:06.183Z,56.36
2016-06-05T00:01:16.167Z,56.16
2016-06-05T00:01:26.183Z,56.36
2016-06-05T00:01:36.198Z,56.65
2016-06-05T00:01:46.201Z,56.74
2016-06-05T00:01:56.201Z,56.65
2016-06-05T00:02:06.201Z,56.74
2016-06-05T00:02:16.233Z,56.55
2016-06-05T00:02:26.217Z,56.74
2016-06-05T00:02:36.217Z,56.55
2016-06-05T00:02:46.219Z,56.36
2016-06-05T00:02:56.235Z,56.36
2016-06-05T00:03:06.235Z,56.36
2016-06-05T00:03:16.250Z,56.16
2016-06-05T00:03:26.250Z,56.07
2016-06-05T00:03:36.250Z,56.26
2016-06-05T00:03:46.253Z,56.16
2016-06-05T00:03:56.269Z,56.26
2016-06-05T00:04:06.269Z,56.26
2016-06-05T00:04:16.269Z,56.16
2016-06-05T00:04:26.285Z,56.36
2016-06-05T00:04:36.285Z,56.26
2016-06-05T00:04:46.303Z,56.07
2016-06-05T00:04:56.303Z,56.36
2016-06-05T00:05:06.303Z,56.26
2016-06-05T00:05:16.303Z,56.26
2016-06-05T00:05:26.303Z,55.98
2016-06-05T00:05:36.319Z,56.16
2016-06-05T00:05:46.337Z,55.88
2016-06-05T00:05:56.337Z,55.78
2016-06-05T00:06:06.337Z,55.98
2016-06-05T00:06:16.337Z,55.78
2016-06-05T00:06:26.353Z,56.07
2016-06-05T00:06:36.353Z,55.4
2016-06-05T00:06:46.355Z,55.3
2016-06-05T00:06:56.371Z,55.3
2016-06-05T00:07:06.371Z,55.2
2016-06-05T00:07:16.371Z,55.4
2016-06-05T00:07:26.386Z,55.2
2016-06-05T00:07:36.386Z,55.11
2016-06-05T00:07:46.388Z,55.4
2016-06-05T00:07:56.388Z,55.49
2016-06-05T00:08:06.404Z,55.3
2016-06-05T00:08:16.404Z,55.4
2016-06-05T00:08:26.420Z,55.2
2016-06-05T00:08:36.420Z,55.3
2016-06-05T00:08:46.424Z,55.11
2016-06-05T00:08:56.439Z,55.01
2016-06-05T00:09:06.439Z,55.11
2016-06-05T00:09:16.439Z,54.91
2016-06-05T00:09:26.455Z,55.11
2016-06-05T00:09:36.455Z,54.91
2016-06-05T00:09:46.301Z,54.91
2016-06-05T00:09:56.457Z,54.91
2016-06-05T00:10:06.472Z,54.82
2016-06-05T00:10:16.472Z,54.53
2016-06-05T00:10:26.472Z,54.53
2016-06-05T00:10:36.488Z,54.72
2016-06-05T00:10:46.491Z,54.53
2016-06-05T00:10:56.507Z,54.53
2016-06-05T00:11:06.507Z,54.63
2016-06-05T00:11:16.507Z,54.69
2016-06-05T00:11:26.507Z,54.53
2016-06-05T00:11:36.522Z,54.63
2016-06-05T00:11:46.525Z,54.53
2016-06-05T00:11:56.525Z,54.72
2016-06-05T00:12:06.541Z,54.53
2016-06-05T00:12:16.541Z,54.43
2016-06-05T00:12:26.541Z,54.43
2016-06-05T00:12:36.557Z,54.24
2016-06-05T00:12:47.106Z,53.92
2016-06-05T00:12:57.075Z,53.92
2016-06-05T00:13:06.731Z,53.74
2016-06-05T00:13:16.841Z,53.66
2016-06-05T00:13:26.591Z,53.83
2016-06-05T00:13:37.216Z,53.76
2016-06-05T00:13:46.483Z,54.14
2016-06-05T00:13:56.608Z,53.92
2016-06-05T00:14:06.624Z,53.54
2016-06-05T00:14:16.624Z,54.05
2016-06-05T00:14:26.608Z,54.02
2016-06-05T00:14:36.624Z,53.66
2016-06-05T00:14:46.626Z,53.57
2016-06-05T00:14:56.626Z,53.96
2016-06-05T00:15:06.642Z,53.74
2016-06-05T00:15:16.642Z,53.74
2016-06-05T00:15:26.642Z,53.35
2016-06-05T00:15:36.657Z,53.64
2016-06-05T00:15:46.660Z,53.54
2016-06-05T00:15:56.660Z,53.47
2016-06-05T00:16:06.676Z,53.76
2016-06-05T00:16:16.676Z,53.54
2016-06-05T00:16:26.676Z,53.35
2016-06-05T00:16:36.692Z,53.45
2016-06-05T00:16:46.710Z,53.45
2016-06-05T00:16:56.695Z,53.45
2016-06-05T00:17:06.710Z,53.25
2016-06-05T00:17:16.710Z,53.25
2016-06-05T00:17:26.710Z,53.16
2016-06-05T00:17:36.710Z,53.35
2016-06-05T00:17:46.729Z,53.64
2016-06-05T00:17:56.744Z,53.74
2016-06-05T00:18:06.744Z,53.45
2016-06-05T00:18:16.744Z,53.35
2016-06-05T00:18:26.744Z,53.06
2016-06-05T00:18:48.372Z,53.16
2016-06-05T00:18:53.201Z,52.99
2016-06-05T00:19:03.154Z,52.89
2016-06-05T00:19:13.169Z,52.68
2016-06-05T00:19:23.169Z,52.68
2016-06-05T00:19:33.169Z,52.68
2016-06-05T00:19:43.169Z,52.8
2016-06-05T00:19:53.203Z,52.77
2016-06-05T00:20:03.187Z,53.06
2016-06-05T00:20:13.187Z,52.68
2016-06-05T00:20:23.203Z,52.87
2016-06-05T00:20:33.203Z,52.97
2016-06-05T00:20:43.203Z,52.97
2016-06-05T00:20:53.221Z,52.68
2016-06-05T00:21:03.221Z,53.09
2016-06-05T00:21:13.221Z,53.06
2016-06-05T00:21:23.237Z,52.97
2016-06-05T00:21:33.237Z,52.97
2016-06-05T00:21:43.252Z,53.06
2016-06-05T00:21:53.255Z,53.16
2016-06-05T00:22:03.255Z,52.97
2016-06-05T00:22:13.255Z,53.35
2016-06-05T00:22:23.255Z,52.97
2016-06-05T00:22:33.271Z,52.97
2016-06-05T00:22:43.271Z,53.06
2016-06-05T00:22:53.273Z,53.16
2016-06-05T00:23:03.289Z,53.25
2016-06-05T00:23:13.289Z,52.97
2016-06-05T00:23:23.289Z,53.06
2016-06-05T00:23:33.304Z,52.89
2016-06-05T00:23:43.304Z,53.06
2016-06-05T00:23:53.307Z,53.28
2016-06-05T00:24:03.323Z,53.16
2016-06-05T00:24:13.323Z,53.54
2016-06-05T00:24:23.339Z,53.16
2016-06-05T00:24:33.339Z,53.06
2016-06-05T00:24:43.339Z,53.06
2016-06-05T00:24:53.357Z,53.16
2016-06-05T00:25:03.357Z,52.7
2016-06-05T00:25:13.357Z,52.77
2016-06-05T00:25:23.357Z,52.68
2016-06-05T00:25:33.373Z,52.68
2016-06-05T00:25:43.373Z,52.68
2016-06-05T00:25:53.407Z,52.68
2016-06-05T00:26:03.391Z,52.58
2016-06-05T00:26:13.407Z,52.68
2016-06-05T00:26:23.407Z,52.68
2016-06-05T00:26:33.407Z,52.58
2016-06-05T00:26:43.407Z,52.39
2016-06-05T00:26:53.409Z,52.2
2016-06-05T00:27:03.425Z,52.39
2016-06-05T00:27:13.425Z,52.39
2016-06-05T00:27:24.190Z,52.29
2016-06-05T00:27:33.440Z,52.2
2016-06-05T00:27:44.237Z,52.2
2016-06-05T00:27:53.459Z,52.1
2016-06-05T00:28:03.303Z,52.2
2016-06-05T00:28:13.459Z,52.1
2016-06-05T00:28:24.115Z,52
2016-06-05T00:28:33.490Z,52
2016-06-05T00:28:43.693Z,52
2016-06-05T00:28:53.477Z,52
2016-06-05T00:29:03.477Z,52.1
2016-06-05T00:29:13.508Z,51.91
2016-06-05T00:29:23.523Z,52.1
2016-06-05T00:29:33.508Z,52
2016-06-05T00:29:43.508Z,52
2016-06-05T00:29:53.511Z,52
2016-06-05T00:30:03.526Z,52.1
2016-06-05T00:30:13.542Z,51.81
2016-06-05T00:30:23.558Z,52.1
2016-06-05T00:30:33.526Z,52
2016-06-05T00:30:43.542Z,52
2016-06-05T00:30:53.576Z,52
2016-06-05T00:31:03.561Z,51.81
2016-06-05T00:31:13.576Z,51.91
2016-06-05T00:31:23.561Z,51.81
2016-06-05T00:31:33.576Z,51.91
2016-06-05T00:31:43.576Z,52
2016-06-05T00:31:53.578Z,52
2016-06-05T00:32:03.578Z,51.91
2016-06-05T00:32:13.594Z,52
2016-06-05T00:32:23.594Z,52.1
2016-06-05T00:32:33.610Z,52.1
2016-06-05T00:32:43.610Z,52.1
2016-06-05T00:32:53.613Z,52.1
2016-06-05T00:33:03.613Z,52.1
2016-06-05T00:33:13.628Z,52.2
2016-06-05T00:33:23.628Z,52.29
2016-06-05T00:33:33.644Z,52.1
2016-06-05T00:33:43.644Z,52.29
2016-06-05T00:33:53.647Z,52.29
2016-06-05T00:34:03.662Z,52.29
2016-06-05T00:34:13.662Z,52.29
2016-06-05T00:34:23.662Z,52.68
2016-06-05T00:34:33.678Z,52.48
2016-06-05T00:34:43.662Z,52.48
2016-06-05T00:34:53.680Z,52.58
2016-06-05T00:35:03.680Z,52.48
2016-06-05T00:35:13.696Z,52.58
2016-06-05T00:35:23.696Z,52.68
2016-06-05T00:35:33.696Z,52.48
2016-06-05T00:35:43.711Z,52.48
2016-06-05T00:35:53.714Z,52.29
2016-06-05T00:36:03.714Z,52.29
2016-06-05T00:36:13.730Z,52.29
2016-06-05T00:36:23.730Z,52.29
2016-06-05T00:36:33.730Z,52.29
2016-06-05T00:36:43.746Z,52.29
2016-06-05T00:36:53.749Z,52.29
2016-06-05T00:37:03.749Z,52.29
2016-06-05T00:37:13.764Z,52.48
2016-06-05T00:37:23.764Z,52.58
2016-06-05T00:37:33.764Z,52.7
2016-06-05T00:37:43.764Z,52.58
2016-06-05T00:37:53.783Z,52.77
2016-06-05T00:38:03.783Z,52.61
2016-06-05T00:38:13.783Z,52.87
2016-06-05T00:38:23.798Z,52.7
2016-06-05T00:38:33.798Z,52.99
2016-06-05T00:38:43.658Z,52.87
2016-06-05T00:38:53.660Z,52.89
2016-06-05T00:39:03.816Z,52.87
2016-06-05T00:39:13.832Z,52.68
2016-06-05T00:39:23.832Z,52.68
2016-06-05T00:39:33.832Z,52.48
2016-06-05T00:39:43.847Z,52.48
2016-06-05T00:39:53.850Z,52.48
2016-06-05T00:40:03.850Z,52.48
2016-06-05T00:40:13.850Z,52.51
2016-06-05T00:40:23.866Z,52.61
2016-06-05T00:40:33.882Z,52.48
2016-06-05T00:40:43.866Z,52.39
2016-06-05T00:40:53.885Z,52.32
2016-06-05T00:41:03.885Z,52.39
2016-06-05T00:41:13.885Z,52.29
2016-06-05T00:41:23.744Z,52
2016-06-05T00:41:33.900Z,52.2
2016-06-05T00:41:43.900Z,52.2
2016-06-05T00:41:53.919Z,52.2
2016-06-05T00:42:03.919Z,52.22
2016-06-05T00:42:13.919Z,52.12
2016-06-05T00:42:24.200Z,52
2016-06-05T00:42:34.997Z,52.03
2016-06-05T00:42:44.622Z,52.12
2016-06-05T00:42:53.936Z,52.29
2016-06-05T00:43:03.952Z,52.42
2016-06-05T00:43:14.124Z,52.7
2016-06-05T00:43:23.983Z,52.61
2016-06-05T00:43:33.983Z,52.68
2016-06-05T00:43:44.171Z,52.58
2016-06-05T00:43:53.970Z,52.68
2016-06-05T00:44:03.985Z,52.7
2016-06-05T00:44:13.985Z,52.7
2016-06-05T00:44:23.985Z,52.42
2016-06-05T00:44:34.001Z,52.29
2016-06-05T00:44:44.017Z,52.48
2016-06-05T00:44:54.021Z,52.42
2016-06-05T00:45:04.021Z,52.51
2016-06-05T00:45:13.864Z,52.22
2016-06-05T00:45:24.021Z,52.42
2016-06-05T00:45:34.036Z,52.51
2016-06-05T00:45:44.036Z,52.42
2016-06-05T00:45:54.054Z,52.48
2016-06-05T00:46:04.054Z,52.51
2016-06-05T00:46:14.054Z,52.39
2016-06-05T00:46:24.054Z,52.32
2016-06-05T00:46:34.069Z,52.51
2016-06-05T00:46:44.069Z,52.61
2016-06-05T00:46:54.087Z,52.7
2016-06-05T00:47:04.087Z,52.61
2016-06-05T00:47:14.087Z,52.89
2016-06-05T00:47:24.087Z,52.8
2016-06-05T00:47:34.103Z,52.7
2016-06-05T00:47:44.103Z,52.7
2016-06-05T00:47:54.106Z,52.61
2016-06-05T00:48:04.121Z,52.89
2016-06-05T00:48:14.121Z,52.89
2016-06-05T00:48:24.137Z,52.99
2016-06-05T00:48:34.137Z,52.99
2016-06-05T00:48:44.137Z,52.8
2016-06-05T00:48:54.140Z,53.09
2016-06-05T00:49:04.156Z,52.89
2016-06-05T00:49:14.171Z,52.7
2016-06-05T00:49:24.187Z,52.89
2016-06-05T00:49:34.015Z,52.89
2016-06-05T00:49:44.171Z,52.89
2016-06-05T00:49:54.174Z,52.89
2016-06-05T00:50:04.174Z,52.7
2016-06-05T00:50:14.190Z,52.89
2016-06-05T00:50:24.190Z,52.99
2016-06-05T00:50:34.190Z,52.8
2016-06-05T00:50:44.205Z,52.7
2016-06-05T00:50:54.224Z,52.61
2016-06-05T00:51:04.208Z,52.7
2016-06-05T00:51:14.224Z,52.7
2016-06-05T00:51:24.240Z,52.61
2016-06-05T00:51:34.240Z,52.51
2016-06-05T00:51:44.255Z,52.7
2016-06-05T00:51:54.257Z,52.7
2016-06-05T00:52:04.257Z,52.7
2016-06-05T00:52:14.257Z,52.7
2016-06-05T00:52:24.257Z,52.61
2016-06-05T00:52:34.273Z,52.7
2016-06-05T00:52:44.273Z,52.61
2016-06-05T00:52:54.276Z,52.61
2016-06-05T00:53:04.292Z,52.51
2016-06-05T00:53:14.307Z,52.42
2016-06-05T00:53:24.292Z,52.32
2016-06-05T00:53:34.307Z,52.32
2016-06-05T00:53:44.307Z,52.42
2016-06-05T00:53:54.310Z,52.42
2016-06-05T00:54:04.310Z,52.32
2016-06-05T00:54:14.310Z,52.42
2016-06-05T00:54:24.326Z,52.42
2016-06-05T00:54:34.326Z,52.32
2016-06-05T00:54:44.341Z,52.32
2016-06-05T00:54:54.343Z,52.22
2016-06-05T00:55:04.343Z,52.32
2016-06-05T00:55:14.359Z,52.42
2016-06-05T00:55:24.359Z,52.42
2016-06-05T00:55:34.359Z,52.8
2016-06-05T00:55:44.375Z,52.7
2016-06-05T00:55:54.393Z,52.61
2016-06-05T00:56:04.378Z,52.7
2016-06-05T00:56:14.378Z,52.7
2016-06-05T00:56:24.393Z,52.32
2016-06-05T00:56:34.393Z,52.12
2016-06-05T00:56:44.393Z,52.03
2016-06-05T00:56:54.412Z,51.93
2016-06-05T00:57:04.412Z,52.12
2016-06-05T00:57:14.428Z,52.22
2016-06-05T00:57:25.209Z,52.42
2016-06-05T00:57:34.271Z,52.32
2016-06-05T00:57:45.131Z,51.84
2016-06-05T00:57:54.446Z,51.84
2016-06-05T00:58:04.556Z,51.64
2016-06-05T00:58:14.462Z,52.12
2016-06-05T00:58:24.462Z,52.22
2016-06-05T00:58:34.774Z,52.32
2016-06-05T00:58:44.649Z,52.51
2016-06-05T00:58:54.495Z,52.42
2016-06-05T00:59:04.495Z,52.42
2016-06-05T00:59:14.495Z,52.7
2016-06-05T00:59:24.495Z,52.7
2016-06-05T00:59:34.495Z,52.8
2016-06-05T00:59:44.495Z,52.61
2016-06-05T00:59:54.514Z,52.61
2016-06-05T01:00:04.514Z,52.7
2016-06-05T01:00:14.514Z,52.32
2016-06-05T01:00:24.529Z,52.42
2016-06-05T01:00:34.529Z,52.12
2016-06-05T01:00:44.545Z,51.93
2016-06-05T01:00:54.548Z,51.64
2016-06-05T01:01:04.548Z,51.74
2016-06-05T01:01:14.564Z,51.35
2016-06-05T01:01:24.564Z,51.45
2016-06-05T01:01:34.564Z,51.45
2016-06-05T01:01:44.564Z,51.45
2016-06-05T01:01:54.581Z,51.64
2016-06-05T01:02:04.581Z,51.64
2016-06-05T01:02:14.581Z,51.64
2016-06-05T01:02:24.597Z,51.45
2016-06-05T01:02:34.597Z,51.33
2016-06-05T01:02:44.597Z,51.35
2016-06-05T01:02:54.614Z,51.35
2016-06-05T01:03:04.614Z,51.26
2016-06-05T01:03:14.630Z,51.07
2016-06-05T01:03:24.630Z,51.07
2016-06-05T01:03:34.630Z,50.97
2016-06-05T01:03:44.630Z,50.87
2016-06-05T01:03:54.634Z,50.49
2016-06-05T01:04:04.650Z,50.87
2016-06-05T01:04:14.650Z,50.68
2016-06-05T01:04:24.665Z,50.68
2016-06-05T01:04:34.665Z,50.59
2016-06-05T01:04:44.665Z,50.85
2016-06-05T01:04:54.683Z,50.4
2016-06-05T01:05:04.683Z,50.4
2016-06-05T01:05:14.699Z,50.49
2016-06-05T01:05:24.683Z,50.27
2016-06-05T01:05:34.714Z,50.49
2016-06-05T01:05:44.699Z,50.37
2016-06-05T01:05:54.702Z,49.99
2016-06-05T01:06:04.717Z,49.82
2016-06-05T01:06:14.561Z,50.18
2016-06-05T01:06:24.717Z,49.91
2016-06-05T01:06:34.733Z,49.72
2016-06-05T01:06:44.733Z,49.6
2016-06-05T01:06:54.751Z,49.6
2016-06-05T01:07:04.751Z,49.6
2016-06-05T01:07:14.751Z,49.63
2016-06-05T01:07:24.751Z,49.99
2016-06-05T01:07:34.767Z,50.1
2016-06-05T01:07:44.767Z,50.08
2016-06-05T01:07:54.644Z,49.79
2016-06-05T01:08:04.785Z,49.79
2016-06-05T01:08:14.785Z,49.69
2016-06-05T01:08:24.800Z,49.91
2016-06-05T01:08:34.800Z,49.6
2016-06-05T01:08:44.800Z,49.6
2016-06-05T01:08:54.803Z,49.6
2016-06-05T01:09:04.819Z,49.6
2016-06-05T01:09:14.819Z,49.6
2016-06-05T01:09:24.819Z,49.79
2016-06-05T01:09:34.835Z,49.22
2016-06-05T01:09:44.835Z,49.31
2016-06-05T01:09:54.853Z,49.6
2016-06-05T01:10:04.697Z,49.51
2016-06-05T01:10:14.853Z,48.93
2016-06-05T01:10:24.853Z,48.93
2016-06-05T01:10:34.869Z,49.12
2016-06-05T01:10:44.869Z,49.02
2016-06-05T01:10:54.872Z,49.02
2016-06-05T01:11:04.887Z,48.74
2016-06-05T01:11:14.887Z,48.93
2016-06-05T01:11:24.887Z,48.83
2016-06-05T01:11:34.887Z,48.83
2016-06-05T01:11:44.919Z,48.93
2016-06-05T01:11:54.905Z,48.83
2016-06-05T01:12:04.921Z,48.83
2016-06-05T01:12:14.921Z,48.93
2016-06-05T01:12:24.921Z,48.83
2016-06-05T01:12:35.671Z,48.83
2016-06-05T01:12:45.139Z,48.83
2016-06-05T01:12:55.221Z,48.74
2016-06-05T01:13:04.955Z,48.74
2016-06-05T01:13:15.299Z,48.74
2016-06-05T01:13:25.189Z,48.74
2016-06-05T01:13:34.971Z,48.64
2016-06-05T01:13:44.971Z,48.64
2016-06-05T01:13:54.988Z,48.64
2016-06-05T01:14:04.973Z,48.64
2016-06-05T01:14:14.988Z,48.64
2016-06-05T01:14:24.988Z,48.64
2016-06-05T01:14:35.004Z,48.64
2016-06-05T01:14:45.004Z,48.74
2016-06-05T01:14:55.007Z,48.54
2016-06-05T01:15:05.007Z,48.64
2016-06-05T01:15:15.022Z,48.93
2016-06-05T01:15:25.038Z,48.64
2016-06-05T01:15:35.038Z,48.45
2016-06-05T01:15:45.038Z,48.54
2016-06-05T01:15:55.057Z,48.54
2016-06-05T01:16:05.041Z,48.54
2016-06-05T01:16:15.057Z,48.54
2016-06-05T01:16:25.057Z,48.54
2016-06-05T01:16:35.057Z,48.54
2016-06-05T01:16:45.072Z,48.54
2016-06-05T01:16:55.074Z,48.54
2016-06-05T01:17:05.074Z,48.54
2016-06-05T01:17:15.090Z,48.54
2016-06-05T01:17:25.090Z,48.45
2016-06-05T01:17:35.090Z,48.25
2016-06-05T01:17:45.106Z,48.54
2016-06-05T01:17:55.109Z,48.54
2016-06-05T01:18:05.109Z,48.54
2016-06-05T01:18:15.109Z,47.77
2016-06-05T01:18:25.124Z,47.87
2016-06-05T01:18:35.124Z,47.87
2016-06-05T01:18:45.124Z,47.77
2016-06-05T01:18:55.143Z,47.77
2016-06-05T01:19:05.143Z,47.97
2016-06-05T01:19:15.143Z,47.97
2016-06-05T01:19:25.158Z,48.07
2016-06-05T01:19:35.158Z,48.07
2016-06-05T01:19:45.158Z,47.77
2016-06-05T01:19:55.177Z,47.77
2016-06-05T01:20:05.177Z,47.58
2016-06-05T01:20:15.177Z,47.97
2016-06-05T01:20:25.193Z,47.39
2016-06-05T01:20:35.193Z,47.39
2016-06-05T01:20:45.208Z,47.87
2016-06-05T01:20:55.211Z,47.87
2016-06-05T01:21:05.211Z,47.77
2016-06-05T01:21:15.211Z,47.49
2016-06-05T01:21:25.227Z,47.87
2016-06-05T01:21:35.227Z,47.68
2016-06-05T01:21:45.227Z,47.77
2016-06-05T01:21:55.245Z,47.77
2016-06-05T01:22:05.245Z,47.97
2016-06-05T01:22:15.245Z,47.87
2016-06-05T01:22:25.260Z,47.87
2016-06-05T01:22:35.260Z,47.97
2016-06-05T01:22:45.260Z,48.07
2016-06-05T01:22:55.279Z,47.39
2016-06-05T01:23:05.123Z,47.39
2016-06-05T01:23:15.294Z,47.58
2016-06-05T01:23:25.294Z,47.39
2016-06-05T01:23:35.294Z,47.58
2016-06-05T01:23:45.294Z,47.49
2016-06-05T01:23:55.312Z,47.49
2016-06-05T01:24:05.312Z,47.49
2016-06-05T01:24:15.312Z,47.3
2016-06-05T01:24:25.312Z,47.39
2016-06-05T01:24:35.328Z,47.39
2016-06-05T01:24:45.328Z,47.49
2016-06-05T01:24:55.331Z,47.49
2016-06-05T01:25:05.346Z,47.68
2016-06-05T01:25:15.362Z,47.68
2016-06-05T01:25:25.362Z,47.97
2016-06-05T01:25:35.362Z,47.58
2016-06-05T01:25:45.362Z,47.39
2016-06-05T01:25:55.365Z,47.39
2016-06-05T01:26:05.224Z,47.39
2016-06-05T01:26:15.381Z,47.39
2016-06-05T01:26:25.396Z,47.39
2016-06-05T01:26:35.396Z,47.3
2016-06-05T01:26:45.396Z,47.39
2016-06-05T01:26:55.398Z,47.3
2016-06-05T01:27:05.414Z,47.3
2016-06-05T01:27:15.414Z,47.46
2016-06-05T01:27:25.273Z,47.49
2016-06-05T01:27:35.289Z,47.46
2016-06-05T01:27:45.961Z,47.49
2016-06-05T01:27:55.448Z,47.46
2016-06-05T01:28:05.448Z,47.49
2016-06-05T01:28:15.448Z,47.49
2016-06-05T01:28:25.464Z,47.3
2016-06-05T01:28:36.042Z,47.27
2016-06-05T01:28:45.464Z,47.1
2016-06-05T01:28:55.310Z,46.79
2016-06-05T01:29:05.482Z,46.81
2016-06-05T01:29:15.482Z,46.81
2016-06-05T01:29:25.482Z,46.98
2016-06-05T01:29:35.482Z,47.1
2016-06-05T01:29:45.498Z,46.91
2016-06-05T01:29:55.500Z,47
2016-06-05T01:30:05.516Z,46.72
2016-06-05T01:30:15.359Z,47.17
2016-06-05T01:30:25.516Z,46.91
2016-06-05T01:30:35.531Z,46.81
2016-06-05T01:30:45.531Z,46.81
2016-06-05T01:30:55.535Z,46.91
2016-06-05T01:31:05.551Z,46.69
2016-06-05T01:31:15.551Z,46.53
2016-06-05T01:31:25.551Z,46.53
2016-06-05T01:31:35.566Z,46.31
2016-06-05T01:31:45.566Z,46.31
2016-06-05T01:31:55.568Z,46.41
2016-06-05T01:32:05.584Z,46.53
2016-06-05T01:32:15.584Z,46.41
2016-06-05T01:32:25.584Z,46.33
2016-06-05T01:32:35.600Z,46.31
2016-06-05T01:32:45.600Z,46.02
2016-06-05T01:32:55.602Z,46.02
2016-06-05T01:33:05.633Z,46.02
2016-06-05T01:33:15.617Z,46.02
2016-06-05T01:33:25.617Z,46.12
2016-06-05T01:33:35.633Z,46.02
2016-06-05T01:33:45.633Z,46.02
2016-06-05T01:33:55.636Z,45.73
2016-06-05T01:34:05.636Z,45.73
2016-06-05T01:34:15.652Z,45.83
2016-06-05T01:34:25.652Z,45.83
2016-06-05T01:34:35.652Z,45.64
2016-06-05T01:34:45.667Z,45.64
2016-06-05T01:34:55.670Z,45.73
2016-06-05T01:35:05.686Z,45.73
2016-06-05T01:35:15.686Z,45.54
2016-06-05T01:35:25.686Z,45.54
2016-06-05T01:35:35.530Z,45.54
2016-06-05T01:35:45.701Z,45.45
2016-06-05T01:35:55.704Z,45.45
2016-06-05T01:36:05.704Z,45.54
2016-06-05T01:36:15.720Z,45.45
2016-06-05T01:36:25.720Z,45.54
2016-06-05T01:36:35.720Z,45.64
2016-06-05T01:36:45.579Z,45.54
2016-06-05T01:36:55.739Z,45.64
2016-06-05T01:37:05.739Z,45.54
2016-06-05T01:37:15.739Z,45.64
2016-06-05T01:37:25.754Z,45.54
2016-06-05T01:37:35.754Z,45.25
2016-06-05T01:37:45.770Z,45.25
2016-06-05T01:37:55.772Z,45.54
2016-06-05T01:38:05.788Z,45.45
2016-06-05T01:38:15.772Z,45.45
2016-06-05T01:38:25.788Z,45.25
2016-06-05T01:38:35.788Z,45.35
2016-06-05T01:38:45.788Z,45.45
2016-06-05T01:38:55.805Z,45.45
2016-06-05T01:39:05.805Z,45.06
2016-06-05T01:39:15.805Z,44.96
2016-06-05T01:39:25.821Z,45.06
2016-06-05T01:39:35.821Z,45.06
2016-06-05T01:39:45.821Z,45.35
2016-06-05T01:39:55.840Z,45.35
2016-06-05T01:40:05.684Z,45.28
2016-06-05T01:40:15.840Z,45.35
2016-06-05T01:40:25.856Z,45.64
2016-06-05T01:40:35.856Z,45.64
2016-06-05T01:40:45.856Z,45.54
2016-06-05T01:40:55.874Z,45.56
2016-06-05T01:41:05.874Z,45.45
2016-06-05T01:41:15.889Z,45.45
2016-06-05T01:41:25.874Z,45.35
2016-06-05T01:41:35.889Z,45.35
2016-06-05T01:41:45.889Z,45.15
2016-06-05T01:41:55.908Z,44.96
2016-06-05T01:42:05.908Z,44.96
2016-06-05T01:42:15.924Z,44.96
2016-06-05T01:42:26.017Z,44.96
2016-06-05T01:42:36.330Z,45.15
2016-06-05T01:42:45.939Z,45.06
2016-06-05T01:42:56.333Z,44.96
2016-06-05T01:43:05.942Z,45.15
2016-06-05T01:43:15.786Z,44.96
2016-06-05T01:43:25.973Z,45.15
2016-06-05T01:43:35.802Z,45.25
2016-06-05T01:43:45.958Z,45.15
2016-06-05T01:43:55.961Z,45.25
2016-06-05T01:44:05.976Z,45.15
2016-06-05T01:44:15.976Z,45.25
2016-06-05T01:44:25.976Z,45.06
2016-06-05T01:44:35.992Z,45.15
2016-06-05T01:44:45.992Z,45.15
2016-06-05T01:44:56.010Z,45.25
2016-06-05T01:45:06.010Z,44.87
2016-06-05T01:45:16.010Z,44.87
2016-06-05T01:45:26.010Z,44.87
2016-06-05T01:45:36.025Z,44.96
2016-06-05T01:45:46.025Z,44.96
2016-06-05T01:45:56.043Z,44.96
2016-06-05T01:46:06.043Z,44.96
2016-06-05T01:46:16.043Z,44.96
2016-06-05T01:46:26.043Z,44.77
2016-06-05T01:46:36.043Z,45.15
2016-06-05T01:46:46.059Z,45.15
2016-06-05T01:46:56.062Z,45.06
2016-06-05T01:47:06.062Z,45.25
2016-06-05T01:47:16.077Z,45.06
2016-06-05T01:47:26.077Z,45.25
2016-06-05T01:47:36.093Z,44.77
2016-06-05T01:47:46.093Z,45.25
2016-06-05T01:47:56.096Z,45.15
2016-06-05T01:48:05.955Z,45.06
2016-06-05T01:48:16.111Z,45.15
2016-06-05T01:48:26.111Z,44.68
2016-06-05T01:48:36.127Z,45.06
2016-06-05T01:48:46.127Z,45.25
2016-06-05T01:48:56.129Z,44.96
2016-06-05T01:49:06.129Z,44.77
2016-06-05T01:49:16.145Z,44.77
2016-06-05T01:49:26.145Z,44.58
2016-06-05T01:49:36.160Z,44.38
2016-06-05T01:49:46.004Z,44.1
2016-06-05T01:49:56.164Z,44.38
2016-06-05T01:50:06.164Z,44.1
2016-06-05T01:50:16.180Z,44.1
2016-06-05T01:50:26.180Z,44
2016-06-05T01:50:36.180Z,44
2016-06-05T01:50:46.196Z,44
2016-06-05T01:50:56.198Z,44.2
2016-06-05T01:51:06.198Z,43.62
2016-06-05T01:51:16.213Z,43.43
2016-06-05T01:51:26.213Z,43.52
2016-06-05T01:51:36.213Z,43.43
2016-06-05T01:51:46.229Z,43.43
2016-06-05T01:51:56.232Z,43.43
2016-06-05T01:52:06.076Z,43.52
2016-06-05T01:52:16.232Z,43.33
2016-06-05T01:52:26.247Z,43.62
2016-06-05T01:52:36.247Z,43.33
2016-06-05T01:52:46.247Z,43.23
2016-06-05T01:52:56.281Z,43.43
2016-06-05T01:53:06.265Z,43.04
2016-06-05T01:53:16.265Z,43.14
2016-06-05T01:53:26.281Z,43.04
2016-06-05T01:53:36.281Z,43.14
2016-06-05T01:53:46.296Z,43.04
2016-06-05T01:53:56.299Z,42.94
2016-06-05T01:54:06.299Z,43.23
2016-06-05T01:54:16.315Z,43.14
2016-06-05T01:54:26.315Z,42.94
2016-06-05T01:54:36.315Z,43.23
2016-06-05T01:54:46.331Z,43.14
2016-06-05T01:54:56.334Z,42.94
2016-06-05T01:55:06.334Z,42.94
2016-06-05T01:55:16.334Z,43.04
2016-06-05T01:55:26.349Z,42.47
2016-06-05T01:55:36.349Z,42.37
2016-06-05T01:55:46.349Z,42.56
2016-06-05T01:55:56.368Z,42.66
2016-06-05T01:56:06.368Z,42.47
2016-06-05T01:56:16.368Z,42.47
2016-06-05T01:56:26.383Z,42.08
2016-06-05T01:56:36.383Z,42.18
2016-06-05T01:56:46.383Z,42.18
2016-06-05T01:56:56.401Z,42.27
2016-06-05T01:57:06.401Z,42.18
2016-06-05T01:57:16.401Z,41.89
2016-06-05T01:57:26.417Z,41.99
2016-06-05T01:57:36.260Z,41.99
2016-06-05T01:57:46.417Z,41.89
2016-06-05T01:57:56.434Z,41.22
2016-06-05T01:58:06.731Z,41.5
2016-06-05T01:58:16.450Z,41.31
2016-06-05T01:58:27.278Z,41.6
2016-06-05T01:58:36.903Z,41.22
2016-06-05T01:58:46.653Z,41.02
2016-06-05T01:58:56.453Z,40.93
2016-06-05T01:59:06.469Z,41.41
2016-06-05T01:59:16.469Z,41.6
2016-06-05T01:59:26.469Z,41.5
2016-06-05T01:59:36.484Z,41.02
2016-06-05T01:59:46.484Z,41.31
2016-06-05T01:59:56.488Z,40.93
2016-06-05T02:00:06.504Z,41.02
2016-06-05T02:00:16.504Z,40.73
2016-06-05T02:00:26.504Z,41.22
2016-06-05T02:00:36.519Z,41.22
2016-06-05T02:00:46.519Z,41.12
2016-06-05T02:00:56.521Z,41.02
2016-06-05T02:01:06.537Z,41.12
2016-06-05T02:01:16.537Z,41.02
2016-06-05T02:01:26.553Z,41.02
2016-06-05T02:01:36.553Z,41.12
2016-06-05T02:01:46.553Z,41.12
2016-06-05T02:01:56.556Z,40.93
2016-06-05T02:02:06.571Z,40.83
2016-06-05T02:02:16.571Z,41.02
2016-06-05T02:02:26.571Z,40.83
2016-06-05T02:02:36.587Z,40.73
2016-06-05T02:02:46.587Z,40.73
2016-06-05T02:02:56.590Z,40.64
2016-06-05T02:03:06.606Z,40.45
2016-06-05T02:03:16.606Z,40.55
2016-06-05T02:03:26.621Z,40.45
2016-06-05T02:03:36.637Z,40.55
2016-06-05T02:03:46.621Z,40.45
2016-06-05T02:03:56.623Z,40.72
2016-06-05T02:04:06.639Z,40.45
2016-06-05T02:04:16.639Z,40.45
2016-06-05T02:04:26.639Z,40.45
2016-06-05T02:04:36.639Z,40.45
2016-06-05T02:04:46.654Z,40.35
2016-06-05T02:04:56.501Z,40.45
2016-06-05T02:05:06.657Z,40.55
2016-06-05T02:05:16.673Z,40.35
2016-06-05T02:05:26.673Z,40.45
2016-06-05T02:05:36.673Z,40.64
2016-06-05T02:05:46.689Z,40.55
2016-06-05T02:05:56.691Z,40.64
2016-06-05T02:06:06.691Z,40.45
2016-06-05T02:06:16.706Z,40.55
2016-06-05T02:06:26.706Z,40.55
2016-06-05T02:06:36.706Z,40.45
2016-06-05T02:06:46.722Z,40.45
2016-06-05T02:06:56.725Z,40.55
2016-06-05T02:07:06.725Z,40.64
2016-06-05T02:07:16.741Z,40.55
2016-06-05T02:07:26.741Z,40.45
2016-06-05T02:07:36.741Z,40.83
2016-06-05T02:07:46.756Z,40.73
2016-06-05T02:07:56.759Z,40.64
2016-06-05T02:08:06.759Z,40.73
2016-06-05T02:08:16.775Z,40.64
2016-06-05T02:08:26.775Z,40.64
2016-06-05T02:08:36.775Z,40.93
2016-06-05T02:08:46.790Z,41.02
2016-06-05T02:08:56.792Z,41.02
2016-06-05T02:09:06.792Z,41.02
2016-06-05T02:09:16.792Z,40.83
2016-06-05T02:09:26.824Z,41.41
2016-06-05T02:09:36.808Z,41.41
2016-06-05T02:09:46.808Z,41.31